createdAt,value
2018-03-31T00:00:38.948Z,0.00
2018-03-31T00:01:38.870Z,0.00
2018-03-31T00:02:38.774Z,0.00
2018-03-31T00:03:38.705Z,0.00
2018-03-31T00:04:38.636Z,0.00
2018-03-31T00:05:38.568Z,0.00
2018-03-31T00:06:38.516Z,0.00
2018-03-31T00:07:38.424Z,0.00
2018-03-31T00:08:38.351Z,0.00
2018-03-31T00:09:38.275Z,0.00
2018-03-31T00:10:38.219Z,0.00
2018-03-31T00:11:38.177Z,0.00
2018-03-31T00:12:38.080Z,0.00
2018-03-31T00:13:37.995Z,0.00
2018-03-31T00:14:37.919Z,0.00
2018-03-31T00:15:37.872Z,0.00
2018-03-31T00:16:37.795Z,0.00
2018-03-31T00:17:37.714Z,0.00
2018-03-31T00:18:37.653Z,0.00
2018-03-31T00:19:37.568Z,0.00
2018-03-31T00:20:37.517Z,0.00
2018-03-31T00:21:37.448Z,0.00
2018-03-31T00:22:37.351Z,0.00
2018-03-31T00:23:37.278Z,0.00
2018-03-31T00:24:37.214Z,0.00
2018-03-31T00:25:37.141Z,0.00
2018-03-31T00:26:37.087Z,0.00
2018-03-31T00:27:37.010Z,0.00
2018-03-31T00:28:36.944Z,0.00
2018-03-31T00:29:36.853Z,0.00
2018-03-31T00:30:36.793Z,0.00
2018-03-31T00:31:36.716Z,0.00
2018-03-31T00:32:36.657Z,0.00
2018-03-31T00:33:36.572Z,0.00
2018-03-31T00:34:36.487Z,0.00
2018-03-31T00:35:36.439Z,0.00
2018-03-31T00:36:36.367Z,0.00
2018-03-31T00:37:36.281Z,0.00
2018-03-31T00:38:36.260Z,0.00
2018-03-31T00:39:36.146Z,0.00
2018-03-31T00:40:36.063Z,0.00
2018-03-31T00:41:36.006Z,0.00
2018-03-31T00:42:35.930Z,0.00
2018-03-31T00:43:35.857Z,0.00
2018-03-31T00:44:35.791Z,0.00
2018-03-31T00:45:35.714Z,0.00
2018-03-31T00:46:35.645Z,0.00
2018-03-31T00:47:35.561Z,0.00
2018-03-31T00:48:35.509Z,0.00
2018-03-31T00:49:35.410Z,0.00
2018-03-31T00:50:35.339Z,0.00
2018-03-31T00:51:35.271Z,0.00
2018-03-31T00:52:35.199Z,0.00
2018-03-31T00:53:35.143Z,0.00
2018-03-31T00:54:35.055Z,0.00
2018-03-31T00:55:34.983Z,0.00
2018-03-31T00:56:34.934Z,0.00
2018-03-31T00:57:34.850Z,0.00
2018-03-31T00:58:34.762Z,0.00
2018-03-31T00:59:34.695Z,0.00
2018-03-31T01:00:34.615Z,0.00
2018-03-31T01:01:34.551Z,0.00
2018-03-31T01:02:34.471Z,0.00
2018-03-31T01:03:34.415Z,0.00
2018-03-31T01:04:34.348Z,0.00
2018-03-31T01:05:34.261Z,0.00
2018-03-31T01:06:34.201Z,0.00
2018-03-31T01:07:34.132Z,0.00
2018-03-31T01:08:34.046Z,0.00
2018-03-31T01:09:33.969Z,0.00
2018-03-31T01:10:33.912Z,0.00
2018-03-31T01:11:33.843Z,0.00
2018-03-31T01:12:33.751Z,0.00
2018-03-31T01:13:33.681Z,0.00
2018-03-31T01:14:33.605Z,0.00
2018-03-31T01:15:33.550Z,0.00
2018-03-31T01:16:33.487Z,0.00
2018-03-31T01:17:33.395Z,0.00
2018-03-31T01:18:33.336Z,0.00
2018-03-31T01:19:33.245Z,0.00
2018-03-31T01:20:33.177Z,0.00
2018-03-31T01:21:33.100Z,0.00
2018-03-31T01:22:33.065Z,0.00
2018-03-31T01:23:33.004Z,0.00
2018-03-31T01:24:32.912Z,0.00
2018-03-31T01:25:32.811Z,0.00
2018-03-31T01:26:32.790Z,0.00
2018-03-31T01:27:32.674Z,0.00
2018-03-31T01:28:32.597Z,0.00
2018-03-31T01:29:32.561Z,0.00
2018-03-31T01:30:32.454Z,0.00
2018-03-31T01:31:32.391Z,0.00
2018-03-31T01:32:32.319Z,0.00
2018-03-31T01:33:32.241Z,0.00
2018-03-31T01:34:32.164Z,0.00
2018-03-31T01:35:32.110Z,0.00
2018-03-31T01:36:32.031Z,0.00
2018-03-31T01:37:31.947Z,0.00
2018-03-31T01:38:31.895Z,0.00
2018-03-31T01:39:31.817Z,0.00
2018-03-31T01:40:31.756Z,0.00
2018-03-31T01:41:31.658Z,0.00
2018-03-31T01:42:31.585Z,0.00
2018-03-31T01:43:31.514Z,0.00
2018-03-31T01:44:31.442Z,0.00
2018-03-31T01:45:31.374Z,0.00
2018-03-31T01:46:31.298Z,0.00
2018-03-31T01:47:31.224Z,0.00
2018-03-31T01:48:31.164Z,0.00
2018-03-31T01:49:31.081Z,0.00
2018-03-31T01:50:31.022Z,0.00
2018-03-31T01:51:30.937Z,0.00
2018-03-31T01:52:30.880Z,0.00
2018-03-31T01:53:30.813Z,0.00
2018-03-31T01:54:30.741Z,0.00
2018-03-31T01:55:30.644Z,0.00
2018-03-31T01:56:30.574Z,0.00
2018-03-31T01:57:30.502Z,0.00
2018-03-31T01:58:30.444Z,0.00
2018-03-31T01:59:30.373Z,0.00
2018-03-31T02:00:30.285Z,0.00
2018-03-31T02:01:30.208Z,0.00
2018-03-31T02:02:30.136Z,0.00
2018-03-31T02:03:30.067Z,0.00
2018-03-31T02:04:29.994Z,0.00
2018-03-31T02:05:29.933Z,0.00
2018-03-31T02:06:29.857Z,0.00
2018-03-31T02:07:29.776Z,0.00
2018-03-31T02:08:29.722Z,0.00
2018-03-31T02:09:29.637Z,0.00
2018-03-31T02:10:29.577Z,0.00
2018-03-31T02:11:29.505Z,0.00
2018-03-31T02:12:29.417Z,0.00
2018-03-31T02:13:29.342Z,0.00
2018-03-31T02:14:29.276Z,0.00
2018-03-31T02:15:29.227Z,0.00
2018-03-31T02:16:29.134Z,0.00
2018-03-31T02:17:29.070Z,0.00
2018-03-31T02:18:28.990Z,0.00
2018-03-31T02:19:28.934Z,0.00
2018-03-31T02:20:28.860Z,0.00
2018-03-31T02:21:28.770Z,0.00
2018-03-31T02:22:28.706Z,0.00
2018-03-31T02:23:28.626Z,0.00
2018-03-31T02:24:28.552Z,0.00
2018-03-31T02:25:28.506Z,0.00
2018-03-31T02:26:28.436Z,0.00
2018-03-31T02:27:28.332Z,0.00
2018-03-31T02:28:28.268Z,0.00
2018-03-31T02:29:28.207Z,0.00
2018-03-31T02:30:28.128Z,0.00
2018-03-31T02:31:28.050Z,0.00
2018-03-31T02:32:27.997Z,0.00
2018-03-31T02:33:27.929Z,0.00
2018-03-31T02:34:27.853Z,0.00
2018-03-31T02:35:27.771Z,0.00
2018-03-31T02:36:27.718Z,0.00
2018-03-31T02:37:27.611Z,0.00
2018-03-31T02:38:27.544Z,0.00
2018-03-31T02:39:27.466Z,0.00
2018-03-31T02:40:27.416Z,0.00
2018-03-31T02:41:27.329Z,0.00
2018-03-31T02:42:27.255Z,0.00
2018-03-31T02:43:27.182Z,0.00
2018-03-31T02:44:27.110Z,0.00
2018-03-31T02:45:27.050Z,0.00
2018-03-31T02:46:26.963Z,0.00
2018-03-31T02:47:26.894Z,0.00
2018-03-31T02:48:26.828Z,0.00
2018-03-31T02:49:26.795Z,0.00
2018-03-31T02:50:26.700Z,0.00
2018-03-31T02:51:26.600Z,0.00
2018-03-31T02:52:26.559Z,0.00
2018-03-31T02:53:26.467Z,0.00
2018-03-31T02:54:26.397Z,0.00
2018-03-31T02:55:26.337Z,0.00
2018-03-31T02:56:26.244Z,0.00
2018-03-31T02:57:26.171Z,0.00
2018-03-31T02:58:26.113Z,0.00
2018-03-31T02:59:26.042Z,0.00
2018-03-31T03:00:25.949Z,0.00
2018-03-31T03:01:25.981Z,0.00
2018-03-31T03:02:25.817Z,0.00
2018-03-31T03:03:25.766Z,0.00
2018-03-31T03:04:25.669Z,0.00
2018-03-31T03:05:25.592Z,0.00
2018-03-31T03:06:25.530Z,0.00
2018-03-31T03:07:25.466Z,0.00
2018-03-31T03:08:25.374Z,0.00
2018-03-31T03:09:25.315Z,0.00
2018-03-31T03:10:25.233Z,0.00
2018-03-31T03:11:25.233Z,0.00
2018-03-31T03:12:25.101Z,0.00
2018-03-31T03:13:25.008Z,0.00
2018-03-31T03:14:24.973Z,0.00
2018-03-31T03:15:24.864Z,0.00
2018-03-31T03:16:24.792Z,0.00
2018-03-31T03:17:24.720Z,0.00
2018-03-31T03:18:24.649Z,0.00
2018-03-31T03:19:24.588Z,0.00
2018-03-31T03:20:24.528Z,0.00
2018-03-31T03:21:24.450Z,0.00
2018-03-31T03:22:24.367Z,0.00
2018-03-31T03:23:24.312Z,0.00
2018-03-31T03:24:24.222Z,0.00
2018-03-31T03:25:24.145Z,0.00
2018-03-31T03:26:24.086Z,0.00
2018-03-31T03:27:24.006Z,0.00
2018-03-31T03:28:23.946Z,0.00
2018-03-31T03:29:23.871Z,0.00
2018-03-31T03:30:23.782Z,0.00
2018-03-31T03:31:23.739Z,0.00
2018-03-31T03:32:23.643Z,0.00
2018-03-31T03:33:23.586Z,0.00
2018-03-31T03:34:23.499Z,0.00
2018-03-31T03:35:23.428Z,0.00
2018-03-31T03:36:23.379Z,0.00
2018-03-31T03:37:23.292Z,0.00
2018-03-31T03:38:23.217Z,0.00
2018-03-31T03:39:23.158Z,0.00
2018-03-31T03:40:23.061Z,0.00
2018-03-31T03:41:22.987Z,0.00
2018-03-31T03:42:22.911Z,0.00
2018-03-31T03:43:22.842Z,0.00
2018-03-31T03:44:22.788Z,0.00
2018-03-31T03:45:22.712Z,0.00
2018-03-31T03:46:22.653Z,0.00
2018-03-31T03:47:22.565Z,0.00
2018-03-31T03:48:22.487Z,0.00
2018-03-31T03:49:22.409Z,0.00
2018-03-31T03:50:22.343Z,0.00
2018-03-31T03:51:22.280Z,0.00
2018-03-31T03:52:22.226Z,0.00
2018-03-31T03:53:22.118Z,0.00
2018-03-31T03:54:22.044Z,0.00
2018-03-31T03:55:22.001Z,0.00
2018-03-31T03:56:21.906Z,0.00
2018-03-31T03:57:21.855Z,0.00
2018-03-31T03:58:21.755Z,0.00
2018-03-31T03:59:21.699Z,0.00
2018-03-31T04:00:21.622Z,0.00
2018-03-31T04:01:21.560Z,0.00
2018-03-31T04:02:21.486Z,0.00
2018-03-31T04:03:21.400Z,0.00
2018-03-31T04:04:21.325Z,0.00
2018-03-31T04:05:21.280Z,0.00
2018-03-31T04:06:21.207Z,0.00
2018-03-31T04:07:21.104Z,0.00
2018-03-31T04:08:21.052Z,0.00
2018-03-31T04:09:20.967Z,0.00
2018-03-31T04:10:20.910Z,0.00
2018-03-31T04:11:20.838Z,0.00
2018-03-31T04:12:20.804Z,0.00
2018-03-31T04:13:20.683Z,0.00
2018-03-31T04:14:20.606Z,0.00
2018-03-31T04:15:20.580Z,0.00
2018-03-31T04:16:20.479Z,0.00
2018-03-31T04:17:20.384Z,0.00
2018-03-31T04:18:20.326Z,0.00
2018-03-31T04:19:20.271Z,0.00
2018-03-31T04:20:20.184Z,0.00
2018-03-31T04:21:20.110Z,0.00
2018-03-31T04:22:20.042Z,0.00
2018-03-31T04:23:19.968Z,0.00
2018-03-31T04:24:19.904Z,0.00
2018-03-31T04:25:19.814Z,0.00
2018-03-31T04:26:19.736Z,0.00
2018-03-31T04:27:19.663Z,0.00
2018-03-31T04:28:19.602Z,0.00
2018-03-31T04:29:19.519Z,0.00
2018-03-31T04:30:19.467Z,0.00
2018-03-31T04:31:19.392Z,0.00
2018-03-31T04:32:19.321Z,0.00
2018-03-31T04:33:19.252Z,0.00
2018-03-31T04:34:19.187Z,0.00
2018-03-31T04:35:19.088Z,0.00
2018-03-31T04:36:19.015Z,0.00
2018-03-31T04:37:18.941Z,0.00
2018-03-31T04:38:18.898Z,0.00
2018-03-31T04:39:18.812Z,0.00
2018-03-31T04:40:18.729Z,0.00
2018-03-31T04:41:18.668Z,0.00
2018-03-31T04:42:18.627Z,0.00
2018-03-31T04:43:18.529Z,0.00
2018-03-31T04:44:18.443Z,0.00
2018-03-31T04:45:18.390Z,0.00
2018-03-31T04:46:18.312Z,0.00
2018-03-31T04:47:18.269Z,0.00
2018-03-31T04:48:18.174Z,0.00
2018-03-31T04:49:18.097Z,0.00
2018-03-31T04:50:18.008Z,0.00
2018-03-31T04:51:17.940Z,0.00
2018-03-31T04:52:17.881Z,0.00
2018-03-31T04:53:17.787Z,0.00
2018-03-31T04:54:17.749Z,0.00
2018-03-31T04:55:17.670Z,0.00
2018-03-31T04:56:17.596Z,0.00
2018-03-31T04:57:17.529Z,0.00
2018-03-31T04:58:17.434Z,0.00
2018-03-31T04:59:17.374Z,0.00
2018-03-31T05:00:17.293Z,0.00
2018-03-31T05:01:17.230Z,0.00
2018-03-31T05:02:17.159Z,0.00
2018-03-31T05:03:17.075Z,0.00
2018-03-31T05:04:17.024Z,0.00
2018-03-31T05:05:16.939Z,0.00
2018-03-31T05:06:16.915Z,0.00
2018-03-31T05:07:16.810Z,0.00
2018-03-31T05:08:16.716Z,0.00
2018-03-31T05:09:16.647Z,0.00
2018-03-31T05:10:16.573Z,0.00
2018-03-31T05:11:16.518Z,0.00
2018-03-31T05:12:16.422Z,0.00
2018-03-31T05:13:16.368Z,0.00
2018-03-31T05:14:16.300Z,0.00
2018-03-31T05:15:16.231Z,0.00
2018-03-31T05:16:16.156Z,0.00
2018-03-31T05:17:16.063Z,0.00
2018-03-31T05:18:15.988Z,0.00
2018-03-31T05:19:15.918Z,0.00
2018-03-31T05:20:15.878Z,0.00
2018-03-31T05:21:15.778Z,0.00
2018-03-31T05:22:15.708Z,0.00
2018-03-31T05:23:15.652Z,0.00
2018-03-31T05:24:15.556Z,0.00
2018-03-31T05:25:15.500Z,0.00
2018-03-31T05:26:15.429Z,0.00
2018-03-31T05:27:15.340Z,0.00
2018-03-31T05:28:15.279Z,0.00
2018-03-31T05:29:15.218Z,0.00
2018-03-31T05:30:15.150Z,4.00
2018-03-31T05:31:15.072Z,0.00
2018-03-31T05:32:14.993Z,4.00
2018-03-31T05:33:14.913Z,4.00
2018-03-31T05:34:14.856Z,4.00
2018-03-31T05:35:14.786Z,8.00
2018-03-31T05:36:14.696Z,8.00
2018-03-31T05:37:14.650Z,8.00
2018-03-31T05:38:14.556Z,8.00
2018-03-31T05:39:14.496Z,12.00
2018-03-31T05:40:14.411Z,16.00
2018-03-31T05:41:14.335Z,16.00
2018-03-31T05:42:14.288Z,20.00
2018-03-31T05:43:14.217Z,24.00
2018-03-31T05:44:14.134Z,28.00
2018-03-31T05:45:14.045Z,32.00
2018-03-31T05:46:13.975Z,36.00
2018-03-31T05:47:13.916Z,40.00
2018-03-31T05:48:13.826Z,48.00
2018-03-31T05:49:13.770Z,52.00
2018-03-31T05:50:13.700Z,60.00
2018-03-31T05:51:13.638Z,64.00
2018-03-31T05:52:13.584Z,76.00
2018-03-31T05:53:13.476Z,80.00
2018-03-31T05:54:13.412Z,92.00
2018-03-31T05:55:13.327Z,104.00
2018-03-31T05:56:13.274Z,112.00
2018-03-31T05:57:13.195Z,124.00
2018-03-31T05:58:13.112Z,136.00
2018-03-31T05:59:13.039Z,144.00
2018-03-31T06:00:12.971Z,160.00
2018-03-31T06:01:12.890Z,172.00
2018-03-31T06:02:12.839Z,200.00
2018-03-31T06:03:12.745Z,224.00
2018-03-31T06:04:12.710Z,232.00
2018-03-31T06:05:12.609Z,256.00
2018-03-31T06:06:12.555Z,308.00
2018-03-31T06:07:12.478Z,336.00
2018-03-31T06:08:12.414Z,384.00
2018-03-31T06:09:12.333Z,408.00
2018-03-31T06:10:12.242Z,340.00
2018-03-31T06:11:12.171Z,324.00
2018-03-31T06:12:12.132Z,372.00
2018-03-31T06:13:12.033Z,596.00
2018-03-31T06:14:11.957Z,660.00
2018-03-31T06:15:11.883Z,676.00
2018-03-31T06:16:11.805Z,564.00
2018-03-31T06:17:11.783Z,632.00
2018-03-31T06:18:11.663Z,536.00
2018-03-31T06:19:11.606Z,652.00
2018-03-31T06:20:11.523Z,704.00
2018-03-31T06:21:11.474Z,656.00
2018-03-31T06:22:11.392Z,712.00
2018-03-31T06:23:11.316Z,872.00
2018-03-31T06:24:11.237Z,892.00
2018-03-31T06:25:11.180Z,868.00
2018-03-31T06:26:11.122Z,736.00
2018-03-31T06:27:11.028Z,756.00
2018-03-31T06:28:10.945Z,1672.00
2018-03-31T06:29:10.888Z,1996.00
2018-03-31T06:30:10.795Z,2024.00
2018-03-31T06:31:10.734Z,2092.00
2018-03-31T06:32:10.643Z,2272.00
2018-03-31T06:33:10.580Z,2116.00
2018-03-31T06:34:10.501Z,2140.00
2018-03-31T06:35:10.431Z,2056.00
2018-03-31T06:36:10.361Z,2800.00
2018-03-31T06:37:10.328Z,3228.00
2018-03-31T06:38:10.213Z,3404.00
2018-03-31T06:39:10.140Z,3040.00
2018-03-31T06:40:10.079Z,3232.00
2018-03-31T06:41:10.013Z,3276.00
2018-03-31T06:42:09.940Z,3236.00
2018-03-31T06:43:09.863Z,1912.00
2018-03-31T06:44:09.803Z,1428.00
2018-03-31T06:45:09.725Z,1600.00
2018-03-31T06:46:09.640Z,3124.00
2018-03-31T06:47:09.606Z,1628.00
2018-03-31T06:48:09.518Z,1508.00
2018-03-31T06:49:09.438Z,1564.00
2018-03-31T06:50:09.370Z,1444.00
2018-03-31T06:51:09.302Z,1636.00
2018-03-31T06:52:09.215Z,1620.00
2018-03-31T06:53:09.143Z,2360.00
2018-03-31T06:54:09.086Z,1764.00
2018-03-31T06:55:08.999Z,3332.00
2018-03-31T06:56:08.940Z,2024.00
2018-03-31T06:57:08.848Z,5008.00
2018-03-31T06:58:08.775Z,4264.00
2018-03-31T06:59:08.717Z,1984.00
2018-03-31T07:00:08.663Z,2164.00
2018-03-31T07:01:08.584Z,4156.00
2018-03-31T07:02:08.518Z,5516.00
2018-03-31T07:03:08.451Z,5444.00
2018-03-31T07:04:08.353Z,5472.00
2018-03-31T07:05:08.298Z,5780.00
2018-03-31T07:06:08.213Z,5760.00
2018-03-31T07:07:08.154Z,5844.00
2018-03-31T07:08:08.088Z,5896.00
2018-03-31T07:09:08.014Z,5860.00
2018-03-31T07:10:07.932Z,3056.00
2018-03-31T07:11:07.865Z,2252.00
2018-03-31T07:12:07.805Z,1336.00
2018-03-31T07:13:07.739Z,1120.00
2018-03-31T07:14:07.677Z,1296.00
2018-03-31T07:15:07.587Z,1304.00
2018-03-31T07:16:07.513Z,5356.00
2018-03-31T07:17:07.457Z,5296.00
2018-03-31T07:18:07.397Z,5380.00
2018-03-31T07:19:07.298Z,5548.00
2018-03-31T07:20:07.236Z,5644.00
2018-03-31T07:21:07.181Z,5520.00
2018-03-31T07:22:07.111Z,5532.00
2018-03-31T07:23:07.015Z,5540.00
2018-03-31T07:24:06.979Z,5636.00
2018-03-31T07:25:06.890Z,5592.00
2018-03-31T07:26:06.817Z,5656.00
2018-03-31T07:27:06.731Z,5660.00
2018-03-31T07:28:06.662Z,5700.00
2018-03-31T07:29:06.610Z,5732.00
2018-03-31T07:30:06.545Z,5772.00
2018-03-31T07:31:06.472Z,5808.00
2018-03-31T07:32:06.413Z,5840.00
2018-03-31T07:33:06.317Z,5904.00
2018-03-31T07:34:06.260Z,5932.00
2018-03-31T07:35:06.203Z,5960.00
2018-03-31T07:36:06.122Z,5992.00
2018-03-31T07:37:06.083Z,6024.00
2018-03-31T07:38:05.990Z,6056.00
2018-03-31T07:39:05.920Z,6092.00
2018-03-31T07:40:05.822Z,6116.00
2018-03-31T07:41:05.754Z,6132.00
2018-03-31T07:42:05.686Z,6168.00
2018-03-31T07:43:05.619Z,6196.00
2018-03-31T07:44:05.557Z,6232.00
2018-03-31T07:45:05.483Z,6268.00
2018-03-31T07:46:05.416Z,6292.00
2018-03-31T07:47:05.342Z,6320.00
2018-03-31T07:48:05.284Z,6360.00
2018-03-31T07:49:05.238Z,6404.00
2018-03-31T07:50:05.157Z,6428.00
2018-03-31T07:51:05.063Z,6456.00
2018-03-31T07:52:05.031Z,6484.00
2018-03-31T07:53:04.952Z,6532.00
2018-03-31T07:54:04.862Z,6812.00
2018-03-31T07:55:04.788Z,6860.00
2018-03-31T07:56:04.778Z,7204.00
2018-03-31T07:57:04.721Z,7360.00
2018-03-31T07:58:04.594Z,7484.00
2018-03-31T07:59:04.537Z,7680.00
2018-03-31T08:00:04.467Z,7368.00
2018-03-31T08:01:04.393Z,7956.00
2018-03-31T08:02:04.303Z,7220.00
2018-03-31T08:03:04.237Z,7120.00
2018-03-31T08:04:04.184Z,7072.00
2018-03-31T08:05:04.122Z,7056.00
2018-03-31T08:06:04.050Z,6816.00
2018-03-31T08:07:03.962Z,6848.00
2018-03-31T08:08:03.896Z,6880.00
2018-03-31T08:09:03.886Z,6872.00
2018-03-31T08:10:03.776Z,6856.00
2018-03-31T08:11:03.692Z,6860.00
2018-03-31T08:12:03.625Z,6904.00
2018-03-31T08:13:03.572Z,6960.00
2018-03-31T08:14:03.504Z,6976.00
2018-03-31T08:15:03.416Z,7048.00
2018-03-31T08:16:03.364Z,7088.00
2018-03-31T08:17:03.284Z,7540.00
2018-03-31T08:18:03.220Z,7344.00
2018-03-31T08:19:03.163Z,7436.00
2018-03-31T08:20:03.076Z,7548.00
2018-03-31T08:21:03.046Z,1824.00
2018-03-31T08:22:02.956Z,7256.00
2018-03-31T08:23:02.880Z,7476.00
2018-03-31T08:24:02.803Z,7484.00
2018-03-31T08:25:02.728Z,6544.00
2018-03-31T08:26:02.659Z,7472.00
2018-03-31T08:27:02.590Z,7272.00
2018-03-31T08:28:02.531Z,7292.00
2018-03-31T08:29:02.453Z,5204.00
2018-03-31T08:30:02.402Z,7096.00
2018-03-31T08:31:02.312Z,7028.00
2018-03-31T08:32:02.263Z,7020.00
2018-03-31T08:33:02.186Z,6984.00
2018-03-31T08:34:02.126Z,6976.00
2018-03-31T08:35:02.045Z,7012.00
2018-03-31T08:36:01.988Z,7000.00
2018-03-31T08:37:01.901Z,7012.00
2018-03-31T08:38:01.857Z,7028.00
2018-03-31T08:39:01.774Z,7020.00
2018-03-31T08:40:01.717Z,7036.00
2018-03-31T08:41:01.651Z,7048.00
2018-03-31T08:42:01.559Z,7044.00
2018-03-31T08:43:01.515Z,7028.00
2018-03-31T08:44:01.428Z,6992.00
2018-03-31T08:45:01.353Z,6940.00
2018-03-31T08:46:01.293Z,6952.00
2018-03-31T08:47:01.274Z,7004.00
2018-03-31T08:48:01.151Z,6984.00
2018-03-31T08:49:01.087Z,6960.00
2018-03-31T08:50:01.017Z,7000.00
2018-03-31T08:51:00.941Z,7000.00
2018-03-31T08:52:00.875Z,6996.00
2018-03-31T08:53:00.809Z,6996.00
2018-03-31T08:54:00.750Z,7004.00
2018-03-31T08:55:00.686Z,7000.00
2018-03-31T08:56:00.598Z,6976.00
2018-03-31T08:57:00.555Z,6968.00
2018-03-31T08:58:00.477Z,7048.00
2018-03-31T08:59:00.388Z,6944.00
2018-03-31T09:00:00.338Z,6932.00
2018-03-31T09:01:00.256Z,6848.00
2018-03-31T09:02:00.192Z,6916.00
2018-03-31T09:03:00.118Z,6892.00
2018-03-31T09:04:00.072Z,6888.00
2018-03-31T09:04:59.993Z,6888.00
2018-03-31T09:05:59.920Z,6876.00
2018-03-31T09:06:59.846Z,6876.00
2018-03-31T09:07:59.795Z,6864.00
2018-03-31T09:08:59.709Z,6828.00
2018-03-31T09:09:59.643Z,6832.00
2018-03-31T09:10:59.598Z,6816.00
2018-03-31T09:11:59.501Z,6816.00
2018-03-31T09:12:59.448Z,6800.00
2018-03-31T09:13:59.368Z,6772.00
2018-03-31T09:14:59.320Z,6792.00
2018-03-31T09:15:59.226Z,6788.00
2018-03-31T09:16:59.156Z,6768.00
2018-03-31T09:17:59.086Z,6788.00
2018-03-31T09:18:59.018Z,6768.00
2018-03-31T09:19:58.975Z,6776.00
2018-03-31T09:20:58.887Z,6756.00
2018-03-31T09:21:58.869Z,6752.00
2018-03-31T09:22:58.748Z,6748.00
2018-03-31T09:23:58.697Z,6712.00
2018-03-31T09:24:58.631Z,6732.00
2018-03-31T09:25:58.571Z,6708.00
2018-03-31T09:26:58.466Z,6692.00
2018-03-31T09:27:58.401Z,6676.00
2018-03-31T09:28:58.352Z,6664.00
2018-03-31T09:29:58.284Z,6684.00
2018-03-31T09:30:58.214Z,6668.00
2018-03-31T09:31:58.133Z,6648.00
2018-03-31T09:32:58.082Z,6656.00
2018-03-31T09:33:57.997Z,6648.00
2018-03-31T09:34:57.947Z,6628.00
2018-03-31T09:35:57.874Z,6628.00
2018-03-31T09:36:57.785Z,6616.00
2018-03-31T09:37:57.729Z,6608.00
2018-03-31T09:38:57.667Z,6592.00
2018-03-31T09:39:57.640Z,6588.00
2018-03-31T09:40:57.529Z,6572.00
2018-03-31T09:41:57.463Z,6568.00
2018-03-31T09:42:57.371Z,6552.00
2018-03-31T09:43:57.326Z,6528.00
2018-03-31T09:44:57.245Z,6516.00
2018-03-31T09:45:57.188Z,6492.00
2018-03-31T09:46:57.097Z,6472.00
2018-03-31T09:47:57.023Z,6456.00
2018-03-31T09:48:56.956Z,6452.00
2018-03-31T09:49:56.891Z,6416.00
2018-03-31T09:50:56.817Z,6408.00
2018-03-31T09:51:56.764Z,6388.00
2018-03-31T09:52:56.691Z,6372.00
2018-03-31T09:53:56.645Z,6368.00
2018-03-31T09:54:56.556Z,6344.00
2018-03-31T09:55:56.478Z,6332.00
2018-03-31T09:56:56.422Z,6308.00
2018-03-31T09:57:56.351Z,6280.00
2018-03-31T09:58:56.301Z,6272.00
2018-03-31T09:59:56.201Z,6220.00
2018-03-31T10:00:56.127Z,6216.00
2018-03-31T10:01:56.087Z,6196.00
2018-03-31T10:02:55.988Z,6232.00
2018-03-31T10:03:55.979Z,6180.00
2018-03-31T10:04:55.877Z,6192.00
2018-03-31T10:05:55.854Z,6176.00
2018-03-31T10:06:55.729Z,6136.00
2018-03-31T10:07:55.677Z,6112.00
2018-03-31T10:08:55.585Z,6060.00
2018-03-31T10:09:55.516Z,6036.00
2018-03-31T10:10:55.442Z,6000.00
2018-03-31T10:11:55.390Z,5948.00
2018-03-31T10:12:55.320Z,5916.00
2018-03-31T10:13:55.256Z,5916.00
2018-03-31T10:14:55.166Z,5888.00
2018-03-31T10:15:55.111Z,5884.00
2018-03-31T10:16:55.030Z,5864.00
2018-03-31T10:17:54.987Z,5852.00
2018-03-31T10:18:54.905Z,5808.00
2018-03-31T10:19:54.850Z,5784.00
2018-03-31T10:20:54.783Z,5760.00
2018-03-31T10:21:54.697Z,5736.00
2018-03-31T10:22:54.631Z,5716.00
2018-03-31T10:23:54.564Z,5676.00
2018-03-31T10:24:54.506Z,5652.00
2018-03-31T10:25:54.419Z,5644.00
2018-03-31T10:26:54.361Z,5640.00
2018-03-31T10:27:54.306Z,5600.00
2018-03-31T10:28:54.243Z,5552.00
2018-03-31T10:29:54.161Z,5516.00
2018-03-31T10:30:54.094Z,5480.00
2018-03-31T10:31:54.021Z,5472.00
2018-03-31T10:32:53.957Z,5464.00
2018-03-31T10:33:53.898Z,5436.00
2018-03-31T10:34:53.823Z,5404.00
2018-03-31T10:35:53.738Z,5384.00
2018-03-31T10:36:53.681Z,5348.00
2018-03-31T10:37:53.598Z,5312.00
2018-03-31T10:38:53.570Z,5296.00
2018-03-31T10:39:53.473Z,5264.00
2018-03-31T10:40:53.391Z,5236.00
2018-03-31T10:41:53.345Z,5196.00
2018-03-31T10:42:53.270Z,5168.00
2018-03-31T10:43:53.189Z,5136.00
2018-03-31T10:44:53.136Z,5092.00
2018-03-31T10:45:53.049Z,5060.00
2018-03-31T10:46:53.007Z,5028.00
2018-03-31T10:47:52.939Z,5004.00
2018-03-31T10:48:52.894Z,4976.00
2018-03-31T10:49:52.817Z,4948.00
2018-03-31T10:50:52.715Z,4912.00
2018-03-31T10:51:52.657Z,4880.00
2018-03-31T10:52:52.593Z,4848.00
2018-03-31T10:53:52.499Z,4824.00
2018-03-31T10:54:52.454Z,4784.00
2018-03-31T10:55:52.364Z,4740.00
2018-03-31T10:56:52.303Z,4712.00
2018-03-31T10:57:52.233Z,4680.00
2018-03-31T10:58:52.152Z,4632.00
2018-03-31T10:59:52.127Z,4616.00
2018-03-31T11:00:52.047Z,4580.00
2018-03-31T11:01:51.966Z,4540.00
2018-03-31T11:02:51.896Z,4500.00
2018-03-31T11:03:51.814Z,4488.00
2018-03-31T11:04:51.743Z,4452.00
2018-03-31T11:05:51.675Z,4416.00
2018-03-31T11:06:51.626Z,4404.00
2018-03-31T11:07:51.538Z,4384.00
2018-03-31T11:08:51.469Z,4364.00
2018-03-31T11:09:51.407Z,4352.00
2018-03-31T11:10:51.322Z,4332.00
2018-03-31T11:11:51.252Z,4308.00
2018-03-31T11:12:51.295Z,4288.00
2018-03-31T11:13:51.148Z,4260.00
2018-03-31T11:14:51.065Z,4240.00
2018-03-31T11:15:51.027Z,4220.00
2018-03-31T11:16:50.945Z,4204.00
2018-03-31T11:17:50.852Z,4180.00
2018-03-31T11:18:50.804Z,4160.00
2018-03-31T11:19:50.728Z,4144.00
2018-03-31T11:20:50.661Z,4116.00
2018-03-31T11:21:50.576Z,4100.00
2018-03-31T11:22:50.508Z,4080.00
2018-03-31T11:23:50.449Z,4064.00
2018-03-31T11:24:50.377Z,4044.00
2018-03-31T11:25:50.300Z,4012.00
2018-03-31T11:26:50.244Z,3992.00
2018-03-31T11:27:50.160Z,3968.00
2018-03-31T11:28:50.075Z,3944.00
2018-03-31T11:29:50.011Z,3928.00
2018-03-31T11:30:49.938Z,3904.00
2018-03-31T11:31:49.884Z,3876.00
2018-03-31T11:32:49.816Z,3852.00
2018-03-31T11:33:49.748Z,3824.00
2018-03-31T11:34:49.659Z,3808.00
2018-03-31T11:35:49.593Z,3780.00
2018-03-31T11:36:49.543Z,3768.00
2018-03-31T11:37:49.538Z,3740.00
2018-03-31T11:38:49.406Z,3716.00
2018-03-31T11:39:49.341Z,3704.00
2018-03-31T11:40:49.240Z,3684.00
2018-03-31T11:41:49.172Z,3668.00
2018-03-31T11:42:49.130Z,3648.00
2018-03-31T11:43:49.038Z,3620.00
2018-03-31T11:44:48.990Z,3612.00
2018-03-31T11:45:48.902Z,3528.00
2018-03-31T11:46:48.846Z,3564.00
2018-03-31T11:47:48.760Z,3552.00
2018-03-31T11:48:48.700Z,3536.00
2018-03-31T11:49:48.622Z,3516.00
2018-03-31T11:50:48.548Z,3500.00
2018-03-31T11:51:48.477Z,3476.00
2018-03-31T11:52:48.433Z,3452.00
2018-03-31T11:53:48.335Z,3452.00
2018-03-31T11:54:48.295Z,3428.00
2018-03-31T11:55:48.212Z,3404.00
2018-03-31T11:56:48.127Z,3392.00
2018-03-31T11:57:48.082Z,3364.00
2018-03-31T11:58:47.995Z,3348.00
2018-03-31T11:59:47.922Z,3328.00
2018-03-31T12:00:47.860Z,3308.00
2018-03-31T12:01:47.781Z,3280.00
2018-03-31T12:02:47.728Z,3272.00
2018-03-31T12:03:47.664Z,3252.00
2018-03-31T12:04:47.578Z,3228.00
2018-03-31T12:05:47.527Z,3200.00
2018-03-31T12:06:47.438Z,3180.00
2018-03-31T12:07:47.361Z,3164.00
2018-03-31T12:08:47.307Z,3148.00
2018-03-31T12:09:47.222Z,3120.00
2018-03-31T12:10:47.154Z,3108.00
2018-03-31T12:11:47.094Z,3080.00
2018-03-31T12:12:47.028Z,3072.00
2018-03-31T12:13:46.962Z,3040.00
2018-03-31T12:14:46.869Z,3036.00
2018-03-31T12:15:46.806Z,3000.00
2018-03-31T12:16:46.754Z,2984.00
2018-03-31T12:17:46.671Z,2964.00
2018-03-31T12:18:46.588Z,2936.00
2018-03-31T12:19:46.541Z,2920.00
2018-03-31T12:20:46.454Z,2904.00
2018-03-31T12:21:46.408Z,2880.00
2018-03-31T12:22:46.328Z,2864.00
2018-03-31T12:23:46.258Z,2836.00
2018-03-31T12:24:46.175Z,2820.00
2018-03-31T12:25:46.121Z,2800.00
2018-03-31T12:26:46.033Z,2780.00
2018-03-31T12:27:45.965Z,2760.00
2018-03-31T12:28:45.896Z,2736.00
2018-03-31T12:29:45.838Z,2720.00
2018-03-31T12:30:45.773Z,2700.00
2018-03-31T12:31:45.705Z,2672.00
2018-03-31T12:32:45.643Z,2648.00
2018-03-31T12:33:45.572Z,2632.00
2018-03-31T12:34:45.477Z,2604.00
2018-03-31T12:35:45.418Z,2588.00
2018-03-31T12:36:45.347Z,2564.00
2018-03-31T12:37:45.268Z,2540.00